This is the latest recevied weather packets stored in our database for station/object HS2LXA-WX. If no packets are shown the sender has not sent any weather packets the latest 1 day(s).
| Time | Temp. | Humidity | Pressure | Rain* | Wind** | Luminosity | Snow |
|---|---|---|---|---|---|---|---|
| 1836274291 | 31.67° C | 83% | 1010.6 hPa | 0 mm | 4.47 m/s, 202° | - | - |
| 1836274141 | 32.22° C | 84% | 1010.6 hPa | 0 mm | 3.13 m/s, 202° | - | - |
| 1778079787 | 31.11° C | 78% | 1013.2 hPa | 0 mm | 0 m/s | - | - |
| 1778079100 | 33.33° C | 68% | 1013.2 hPa | 0 mm | 0 m/s | - | - |
| 1778078505 | 33.33° C | 67% | 1013.1 hPa | 0 mm | 0 m/s | - | - |
| 1778077483 | 32.78° C | 71% | 1013.2 hPa | 0 mm | 4.02 m/s, 67° | - | - |
| 1778076884 | 32.78° C | 70% | 1013.1 hPa | 0 mm | 0 m/s | - | - |
| 1778075872 | 32.78° C | 71% | 1013.1 hPa | 0 mm | 0.89 m/s, 67° | - | - |
| 1778075272 | 33.33° C | 71% | 1013.2 hPa | 0 mm | 0.45 m/s, 112° | - | - |
| 1778074672 | 33.33° C | 70% | 1013.1 hPa | 0 mm | 0 m/s | - | - |
| 1778074068 | 33.33° C | 71% | 1013.2 hPa | 0 mm | 0 m/s | - | - |
| 1778072245 | 31.67° C | 77% | 1013.1 hPa | 0 mm | 0 m/s | - | - |
| 1778071645 | 31.67° C | 76% | 1013.1 hPa | 0 mm | 0 m/s | - | - |
| 1778071045 | 31.67° C | 76% | 1013.1 hPa | 0 mm | 0 m/s | - | - |
| 1778070026 | 31.67° C | 76% | 1013.2 hPa | 0 mm | 0 m/s | - | - |
| 1778069237 | 31.67° C | 75% | 1013.1 hPa | 0 mm | 1.34 m/s, 112° | - | - |
| 1778068633 | 31.67° C | 76% | 1013.1 hPa | 0 mm | 0 m/s | - | - |
| 1778067967 | 31.67° C | 74% | 1013.2 hPa | 0 mm | 0 m/s | - | - |
| 1778067366 | 32.22° C | 72% | 1013.1 hPa | 0 mm | 0 m/s | - | - |
| 1778066252 | 32.22° C | 70% | 1013.1 hPa | 0 mm | 2.24 m/s, 67° | - | - |
| 1778065651 | 32.78° C | 68% | 1013.1 hPa | 0 mm | 0.89 m/s, 67° | - | - |
| 1778065050 | 32.78° C | 69% | 1013.2 hPa | 0 mm | 0.89 m/s, 67° | - | - |
| 1778064383 | 32.78° C | 70% | 1013.1 hPa | 0 mm | 1.34 m/s, 0° | - | - |
| 1778063783 | 33.33° C | 68% | 1013.2 hPa | 0 mm | 0 m/s | - | - |
| 1778063183 | 33.33° C | 67% | 1013.2 hPa | 0 mm | 2.68 m/s, 112° | - | - |
* Rain latest hour (hover to see other rain measurements)
** Current wind speed in m/s (hover to see current wind gust speed)